Startpagina
METAR-TAF:

METAR-TAF

Vliegvelden :

Livingstone, Zambia

breedte: 17-49-18S, lengte: 025-49-22E, hoogte: 991 m

Actueel weer

Dit bericht is 9 uur en het 56 minuten geleden gemaakt, om 12:00 UTC
Wind 13 kt uit het oostnoordoosten
Temperatuur 31°C
Vochtigheid 46%
Druk 1020 hPa
Zicht 10 km of meer
geen wolken onder 1500 m en geen cumulonimbus

METAR: FLHN 091200Z 07013KT CAVOK 31/18 Q1020 NOSIG

Tijdstip: 23:56 (21:56 UTC)


TAF: ontbreekt

Waarnemingen en weersverwachtingen van meer dan 4000 vliegvelden (METAR en TAF).

De beschikbare stations zijn de gele en rode punten op de kaart.

Ga met uw muis naar het station om de naam te zien.

Klik dan om waarnemingen en weersverwachtingen te zien.

kaart wijzigen: klik op de groene knoppen met een zwart kruis om in te zoomen, op de groene knop met een streepje om uit te zoomen of op de groene pijlen voor aangrenzende kaarten.


METAR-TAF: